createdAt,value
2016-04-20T08:27:07.641Z,39.92
2016-04-20T08:28:07.956Z,40.11
2016-04-20T08:29:07.786Z,39.92
2016-04-20T08:30:07.805Z,39.65
2016-04-20T08:31:07.792Z,39.84
2016-04-20T08:32:07.810Z,39.84
2016-04-20T08:33:07.797Z,39.56
2016-04-20T08:34:07.816Z,39.56
2016-04-20T08:35:07.818Z,38.89
2016-04-20T08:36:07.805Z,38.6
2016-04-20T08:37:08.355Z,38.7
2016-04-20T08:38:07.810Z,38.79
2016-04-20T08:39:07.782Z,38.6
2016-04-20T08:40:07.801Z,38.51
2016-04-20T08:41:07.788Z,38.51
2016-04-20T08:42:07.790Z,38.41
2016-04-20T08:43:07.793Z,38.41
2016-04-20T08:44:07.796Z,38.22
2016-04-20T08:45:07.784Z,38.22
2016-04-20T08:46:07.786Z,38.14
2016-04-20T08:47:07.789Z,38.14
2016-04-20T08:48:07.792Z,37.95
2016-04-20T08:49:07.795Z,37.95
2016-04-20T08:50:07.797Z,37.66
2016-04-20T08:51:07.784Z,37.66
2016-04-20T08:52:07.802Z,37.4
2016-04-20T08:53:07.789Z,37.3
2016-04-20T08:54:07.792Z,37.21
2016-04-20T08:55:07.778Z,37.21
2016-04-20T08:56:07.781Z,37.4
2016-04-20T08:57:07.783Z,37.02
2016-04-20T08:58:07.803Z,37.21
2016-04-20T08:59:07.805Z,37.21
2016-04-20T09:00:07.792Z,37.02
2016-04-20T09:01:07.795Z,36.92
2016-04-20T09:02:07.782Z,36.54
2016-04-20T09:03:07.800Z,36.73
2016-04-20T09:04:07.802Z,36.44
2016-04-20T09:05:07.790Z,36.63
2016-04-20T09:06:07.792Z,35.79
2016-04-20T09:07:07.780Z,35.98
2016-04-20T09:08:07.782Z,35.29
2016-04-20T09:09:07.785Z,35.1
2016-04-20T09:10:07.788Z,34.91
2016-04-20T09:11:07.791Z,35.29
2016-04-20T09:12:07.793Z,35.29
2016-04-20T09:13:07.796Z,34.81
2016-04-20T09:14:07.799Z,34.91
2016-04-20T09:15:07.817Z,35
2016-04-20T09:16:07.804Z,34.63
2016-04-20T09:17:07.650Z,34.24
2016-04-20T09:18:07.793Z,34.14
2016-04-20T09:19:07.812Z,34.26
2016-04-20T09:20:07.784Z,34.26
2016-04-20T09:21:07.801Z,34.36
2016-04-20T09:22:09.064Z,33.87
2016-04-20T09:23:07.822Z,33.4
2016-04-20T09:24:08.466Z,32.82
2016-04-20T09:25:08.358Z,33.4
2016-04-20T09:26:07.814Z,33.51
2016-04-20T09:27:08.551Z,33.7
2016-04-20T09:28:07.819Z,33.7
2016-04-20T09:29:07.854Z,33.41
2016-04-20T09:30:07.810Z,33.61
2016-04-20T09:31:08.999Z,33.41
2016-04-20T09:32:09.487Z,33.62
2016-04-20T09:33:09.067Z,32.95
2016-04-20T09:34:08.367Z,33.14
2016-04-20T09:35:07.792Z,33.04
2016-04-20T09:36:07.809Z,32.97
2016-04-20T09:37:07.828Z,32.87
2016-04-20T09:38:07.814Z,32.39
2016-04-20T09:39:07.099Z,32.49
2016-04-20T09:40:07.820Z,32.29
2016-04-20T09:41:08.683Z,32.29
2016-04-20T09:42:07.826Z,32.01
2016-04-20T09:43:08.141Z,31.54
2016-04-20T09:44:08.034Z,31.93
2016-04-20T09:45:07.833Z,31.26
2016-04-20T09:46:08.336Z,31.26
2016-04-20T09:47:07.839Z,31.16
2016-04-20T09:48:07.858Z,30.78
2016-04-20T09:49:07.845Z,30.51
2016-04-20T09:50:07.863Z,30.6
2016-04-20T09:51:07.850Z,30.51
2016-04-20T09:52:07.868Z,30.41
2016-04-20T09:53:07.855Z,30.32
2016-04-20T09:54:07.858Z,30.22
2016-04-20T09:55:07.861Z,30.12
2016-04-20T09:56:07.879Z,30.02
2016-04-20T09:57:07.866Z,29.64
2016-04-20T09:58:07.869Z,28.97
2016-04-20T09:59:07.887Z,29.45
2016-04-20T10:00:07.874Z,29.26
2016-04-20T10:01:07.876Z,29.15
2016-04-20T10:02:07.895Z,28.96
2016-04-20T10:03:07.898Z,29.63
2016-04-20T10:04:07.915Z,29.34
2016-04-20T10:05:08.043Z,29.44
2016-04-20T10:06:07.921Z,29.63
2016-04-20T10:07:07.908Z,29.44
2016-04-20T10:08:07.926Z,29.16
2016-04-20T10:09:07.914Z,28.88
2016-04-20T10:10:07.917Z,28.97
2016-04-20T10:11:07.935Z,29.06
2016-04-20T10:12:07.906Z,28.68
2016-04-20T10:13:07.925Z,28.99
2016-04-20T10:14:07.928Z,28.22
2016-04-20T10:15:07.946Z,28.22
2016-04-20T10:16:07.933Z,28.41
2016-04-20T10:17:07.951Z,27.83
2016-04-20T10:18:07.954Z,27.55
2016-04-20T10:19:07.941Z,27.55
2016-04-20T10:20:07.975Z,27.26
2016-04-20T10:21:07.962Z,26.97
2016-04-20T10:22:07.964Z,27.06
2016-04-20T10:23:07.967Z,27.36
2016-04-20T10:24:07.970Z,26.59
2016-04-20T10:25:07.972Z,25.73
2016-04-20T10:26:07.960Z,26.3
2016-04-20T10:27:07.977Z,25.82
2016-04-20T10:28:07.980Z,25.72
2016-04-20T10:29:07.968Z,26.2
2016-04-20T10:30:07.986Z,26.2
2016-04-20T10:31:08.004Z,26.3
2016-04-20T10:32:07.991Z,26.3
2016-04-20T10:33:08.010Z,26.21
2016-04-20T10:34:07.997Z,26.03
2016-04-20T10:35:07.860Z,26.12
2016-04-20T10:36:08.002Z,25.64
2016-04-20T10:37:08.004Z,25.82
2016-04-20T10:38:08.023Z,25.82
2016-04-20T10:39:08.026Z,25.82
2016-04-20T10:40:08.028Z,25.81
2016-04-20T10:41:08.032Z,26.28
2016-04-20T10:42:08.050Z,26.38
2016-04-20T10:43:08.037Z,26.67
2016-04-20T10:44:08.055Z,27.14
2016-04-20T10:45:08.058Z,26.65
2016-04-20T10:46:08.061Z,26.46
2016-04-20T10:47:08.048Z,27.04
2016-04-20T10:48:08.066Z,27.22
2016-04-20T10:49:08.053Z,27.12
2016-04-20T10:50:09.758Z,27.7
2016-04-20T10:51:09.949Z,27.5
2016-04-20T10:52:09.217Z,27.71
2016-04-20T10:53:08.063Z,27.52
2016-04-20T10:54:08.316Z,27.42
2016-04-20T10:55:08.116Z,27.23
2016-04-20T10:56:08.072Z,26.94
2016-04-20T10:57:08.168Z,26.85
2016-04-20T10:58:08.093Z,26.85
2016-04-20T10:59:08.079Z,27.33
2016-04-20T11:00:08.082Z,27.33
2016-04-20T11:01:09.085Z,27.42
2016-04-20T11:02:09.291Z,27.5
2016-04-20T11:03:08.544Z,27.41
2016-04-20T11:04:08.077Z,27.5
2016-04-20T11:05:08.112Z,27.6
2016-04-20T11:06:08.114Z,27.89
2016-04-20T11:07:08.132Z,28.27
2016-04-20T11:08:08.104Z,28.27
2016-04-20T11:09:08.107Z,28.09
2016-04-20T11:10:08.109Z,27.71
2016-04-20T11:11:08.112Z,27.81
2016-04-20T11:12:08.115Z,27.61
2016-04-20T11:13:08.118Z,27.52
2016-04-20T11:14:08.104Z,28
2016-04-20T11:15:08.107Z,27.89
2016-04-20T11:16:08.109Z,27.31
2016-04-20T11:17:08.112Z,27.22
2016-04-20T11:18:08.131Z,27.89
2016-04-20T11:19:08.118Z,28.94
2016-04-20T11:20:08.121Z,29.04
2016-04-20T11:21:08.123Z,29.04
2016-04-20T11:22:08.142Z,28.66
2016-04-20T11:23:08.128Z,28.75
2016-04-20T11:24:08.085Z,28.37
2016-04-20T11:25:08.244Z,28.27
2016-04-20T11:26:08.121Z,27.98
2016-04-20T11:27:08.139Z,27.7
2016-04-20T11:28:08.141Z,27.6
2016-04-20T11:29:08.144Z,27.87
2016-04-20T11:30:08.147Z,27.87
2016-04-20T11:31:08.150Z,27.39
2016-04-20T11:32:08.153Z,27.39
2016-04-20T11:33:08.156Z,27.68
2016-04-20T11:34:08.158Z,27.39
2016-04-20T11:35:08.161Z,28.06
2016-04-20T11:36:08.163Z,27.87
2016-04-20T11:37:08.182Z,27.49
2016-04-20T11:38:08.154Z,27.87
2016-04-20T11:39:08.172Z,28.24
2016-04-20T11:40:08.159Z,28.26
2016-04-20T11:41:08.943Z,28.35
2016-04-20T11:42:08.898Z,28.35
2016-04-20T11:43:09.182Z,28.66
2016-04-20T11:44:08.763Z,28.37
2016-04-20T11:45:08.157Z,28.56
2016-04-20T11:46:08.519Z,28.27
2016-04-20T11:47:08.458Z,28.17
2016-04-20T11:48:08.165Z,28.17
2016-04-20T11:49:08.167Z,28.27
2016-04-20T11:50:08.967Z,28.28
2016-04-20T11:51:08.173Z,28.09
2016-04-20T11:52:09.503Z,27.33
2016-04-20T11:53:08.178Z,27.23
2016-04-20T11:54:08.181Z,27.22
2016-04-20T11:55:08.183Z,27.6
2016-04-20T11:56:08.749Z,27.6
2016-04-20T11:57:08.188Z,27.68
2016-04-20T11:58:08.191Z,27.87
2016-04-20T11:59:08.195Z,28.26
2016-04-20T12:00:08.197Z,28.15
2016-04-20T12:01:08.185Z,28.24
2016-04-20T12:02:08.202Z,28.24
2016-04-20T12:03:08.204Z,28.34
2016-04-20T12:04:08.207Z,28.24
2016-04-20T12:05:08.196Z,28.72
2016-04-20T12:06:08.198Z,28.81
2016-04-20T12:07:08.201Z,28.72
2016-04-20T12:08:08.203Z,28.8
2016-04-20T12:09:09.440Z,28.99
2016-04-20T12:10:08.645Z,28.9
2016-04-20T12:11:08.195Z,29.28
2016-04-20T12:12:08.543Z,29.47
2016-04-20T12:13:08.404Z,29.66
2016-04-20T12:14:08.204Z,29.76
2016-04-20T12:15:08.753Z,30.05
2016-04-20T12:16:08.224Z,30.05
2016-04-20T12:17:08.212Z,29.68
2016-04-20T12:18:08.215Z,29.3
2016-04-20T12:19:08.201Z,29.11
2016-04-20T12:20:08.251Z,29.01
2016-04-20T12:21:08.206Z,28.24
2016-04-20T12:22:09.319Z,28.63
2016-04-20T12:23:08.197Z,28.91
2016-04-20T12:24:08.214Z,28.91
2016-04-20T12:25:08.217Z,28.34
2016-04-20T12:26:08.219Z,28.16
2016-04-20T12:27:08.207Z,28.74
2016-04-20T12:28:08.210Z,29.02
2016-04-20T12:29:08.213Z,28.16
2016-04-20T12:30:08.215Z,28.15
2016-04-20T12:31:08.203Z,28.81
2016-04-20T12:32:08.220Z,28.91
2016-04-20T12:33:08.207Z,29.39
2016-04-20T12:34:08.210Z,29.49
2016-04-20T12:35:08.213Z,29.2
2016-04-20T12:36:08.216Z,29.39
2016-04-20T12:37:08.219Z,29.11
2016-04-20T12:38:08.221Z,29.3
2016-04-20T12:39:08.208Z,28.91
2016-04-20T12:40:08.227Z,29.11
2016-04-20T12:41:08.230Z,28.53
2016-04-20T12:42:08.216Z,28.44
2016-04-20T12:43:08.234Z,28.15
2016-04-20T12:44:08.206Z,28.24
2016-04-20T12:45:08.224Z,28.53
2016-04-20T12:46:08.227Z,28.15
2016-04-20T12:47:08.230Z,28.15
2016-04-20T12:48:08.217Z,28.05
2016-04-20T12:49:08.235Z,28.24
2016-04-20T12:50:08.222Z,28.26
2016-04-20T12:51:08.225Z,28.26
2016-04-20T12:52:08.228Z,28.35
2016-04-20T12:53:08.230Z,28.35
2016-04-20T12:54:08.233Z,28.26
2016-04-20T12:55:08.236Z,28.16
2016-04-20T12:56:08.223Z,27.78
2016-04-20T12:57:08.225Z,27.11
2016-04-20T12:58:08.228Z,27.39
2016-04-20T12:59:08.231Z,27.49
2016-04-20T13:01:08.251Z,27.87
2016-04-20T13:02:09.488Z,28.16
2016-04-20T13:03:08.898Z,28.06
2016-04-20T13:04:08.229Z,28.26
2016-04-20T13:05:08.247Z,28.55
2016-04-20T13:06:08.718Z,28.26
2016-04-20T13:07:08.127Z,28.55
2016-04-20T13:08:08.240Z,28.15
2016-04-20T13:09:10.352Z,28.55
2016-04-20T13:10:09.276Z,28.55
2016-04-20T13:11:08.700Z,28.45
2016-04-20T13:12:08.406Z,27.78
2016-04-20T13:13:08.643Z,27.78
2016-04-20T13:14:08.240Z,27.39
2016-04-20T13:15:08.243Z,27.49
2016-04-20T13:16:08.370Z,27.5
2016-04-20T13:17:08.232Z,27.5
2016-04-20T13:18:08.235Z,27.6
2016-04-20T13:19:08.237Z,27.7
2016-04-20T13:20:08.240Z,27.31
2016-04-20T13:21:08.243Z,27.31
2016-04-20T13:22:08.245Z,27.22
2016-04-20T13:23:08.248Z,26.83
2016-04-20T13:24:08.235Z,26.45
2016-04-20T13:25:08.097Z,26.74
2016-04-20T13:26:08.256Z,26.74
2016-04-20T13:27:08.259Z,26.16
2016-04-20T13:28:09.044Z,25.59
2016-04-20T13:29:08.296Z,25.49
2016-04-20T13:30:09.299Z,25.57
2016-04-20T13:31:09.551Z,26.25
2016-04-20T13:32:08.867Z,26.25
2016-04-20T13:33:08.244Z,26.25
2016-04-20T13:34:08.263Z,26.34
2016-04-20T13:35:08.249Z,26.53
2016-04-20T13:36:08.252Z,26.82
2016-04-20T13:37:08.254Z,27.2
2016-04-20T13:38:10.305Z,27.2
2016-04-20T13:39:09.916Z,26.63
2016-04-20T13:40:08.951Z,26.82
2016-04-20T13:41:08.266Z,27.2
2016-04-20T13:42:08.268Z,27.01
2016-04-20T13:43:08.270Z,26.43
2016-04-20T13:44:08.665Z,26.34
2016-04-20T13:45:08.260Z,26.34
2016-04-20T13:46:08.279Z,25.96
2016-04-20T13:47:08.265Z,25.38
2016-04-20T13:48:08.254Z,25.77
2016-04-20T13:49:08.256Z,25.67
2016-04-20T13:50:08.259Z,26.06
2016-04-20T13:51:08.261Z,26.25
2016-04-20T13:52:08.265Z,26.34
2016-04-20T13:53:08.267Z,25.96
2016-04-20T13:54:08.269Z,26.34
2016-04-20T13:55:08.272Z,26.15
2016-04-20T13:56:08.275Z,26.72
2016-04-20T13:57:08.277Z,26.25
2016-04-20T13:58:08.281Z,27.39
2016-04-20T13:59:08.283Z,26.92
2016-04-20T14:00:08.270Z,27.38
2016-04-20T14:01:08.258Z,27.3
2016-04-20T14:02:08.275Z,27.28
2016-04-20T14:03:08.278Z,27.09
2016-04-20T14:04:08.280Z,26.71
2016-04-20T14:05:08.596Z,26.23
2016-04-20T14:06:08.457Z,26.42
2016-04-20T14:07:08.274Z,26.81
2016-04-20T14:08:08.276Z,26.81
2016-04-20T14:09:08.279Z,26.33
2016-04-20T14:10:08.282Z,26.62
2016-04-20T14:11:08.252Z,26.52
2016-04-20T14:12:08.271Z,26.62
2016-04-20T14:13:08.274Z,26.42
2016-04-20T14:14:08.277Z,26.04
2016-04-20T14:15:08.263Z,26.23
2016-04-20T14:16:08.265Z,25.95
2016-04-20T14:17:08.268Z,26.04
2016-04-20T14:18:08.287Z,26.04
2016-04-20T14:19:08.821Z,26.12
2016-04-20T14:20:08.809Z,25.36
2016-04-20T14:21:08.498Z,26.12
2016-04-20T14:22:09.096Z,26.3
2016-04-20T14:23:08.270Z,26.59
2016-04-20T14:24:08.429Z,26.4
2016-04-20T14:25:08.276Z,27.16
2016-04-20T14:26:08.263Z,27.07
2016-04-20T14:27:08.281Z,27.34
2016-04-20T14:28:09.159Z,27.72
2016-04-20T14:29:08.271Z,27.91
2016-04-20T14:30:08.462Z,27.62
2016-04-20T14:31:08.417Z,28.11
2016-04-20T14:32:08.278Z,28.11
2016-04-20T14:33:08.687Z,27.44
2016-04-20T14:34:08.268Z,27.44
2016-04-20T14:35:08.256Z,28.01
2016-04-20T14:36:08.273Z,28.3
2016-04-20T14:37:08.276Z,28.3
2016-04-20T14:38:08.248Z,28.3
2016-04-20T14:39:08.267Z,28.2
2016-04-20T14:40:08.269Z,28.22
2016-04-20T14:41:08.256Z,28.5
2016-04-20T14:42:08.275Z,28.22
2016-04-20T14:43:08.261Z,28.12
2016-04-20T14:44:08.264Z,28.5
2016-04-20T14:45:08.267Z,28.12
2016-04-20T14:46:08.255Z,28.31
2016-04-20T14:47:08.866Z,28.22
2016-04-20T14:48:10.806Z,28.12
2016-04-20T14:49:08.263Z,28.22
2016-04-20T14:50:08.249Z,28.22
2016-04-20T14:51:08.455Z,28.41
2016-04-20T14:52:08.254Z,28.12
2016-04-20T14:53:08.273Z,27.73
2016-04-20T14:54:08.463Z,27.73
2016-04-20T14:55:08.263Z,27.36
2016-04-20T14:56:09.202Z,27.73
2016-04-20T14:57:08.815Z,27.45
2016-04-20T14:58:08.255Z,28.02
2016-04-20T14:59:09.305Z,28.02
2016-04-20T15:00:09.354Z,28.5
2016-04-20T15:01:08.841Z,28.12
2016-04-20T15:02:08.390Z,28.22
2016-04-20T15:03:08.440Z,27.64
2016-04-20T15:04:08.458Z,27.93
2016-04-20T15:05:08.242Z,27.83
2016-04-20T15:06:08.245Z,27.83
2016-04-20T15:07:08.248Z,27.66
2016-04-20T15:08:08.235Z,27.66
2016-04-20T15:09:08.254Z,27.75
2016-04-20T15:10:08.240Z,27.37
2016-04-20T15:11:08.243Z,27.37
2016-04-20T15:12:08.245Z,27
2016-04-20T15:13:08.264Z,27.19
2016-04-20T15:14:08.235Z,27.28
2016-04-20T15:15:08.238Z,27.09
2016-04-20T15:16:08.241Z,26.63
2016-04-20T15:17:08.243Z,25.86
2016-04-20T15:18:08.246Z,25.57
2016-04-20T15:19:08.249Z,25.46
2016-04-20T15:20:08.236Z,25.27
2016-04-20T15:21:08.238Z,25.77
2016-04-20T15:22:08.241Z,25.46
2016-04-20T15:23:08.244Z,25.46
2016-04-20T15:24:08.246Z,25.75
2016-04-20T15:25:08.234Z,25.46
2016-04-20T15:26:08.237Z,24.99
2016-04-20T15:27:08.239Z,24.99
2016-04-20T15:28:08.258Z,24.79
2016-04-20T15:29:08.229Z,25.26
2016-04-20T15:30:08.248Z,25.74
2016-04-20T15:31:08.250Z,25.45
2016-04-20T15:32:08.237Z,25.84
2016-04-20T15:33:08.256Z,25.84
2016-04-20T15:34:08.258Z,25.74
2016-04-20T15:35:08.245Z,25.55
2016-04-20T15:36:08.236Z,24.69
2016-04-20T15:37:09.083Z,25.06
2016-04-20T15:38:08.242Z,25.54
2016-04-20T15:39:08.244Z,25.73
2016-04-20T15:40:09.201Z,25.54
2016-04-20T15:41:08.250Z,26.01
2016-04-20T15:42:08.238Z,26.3
2016-04-20T15:43:08.850Z,26.3
2016-04-20T15:44:08.244Z,25.92
2016-04-20T15:45:08.230Z,26.3
2016-04-20T15:46:08.249Z,26.3
2016-04-20T15:47:08.220Z,26.5
2016-04-20T15:48:09.317Z,26.5
2016-04-20T15:49:09.491Z,27.16
2016-04-20T15:50:08.822Z,26.97
2016-04-20T15:51:08.230Z,27.26
2016-04-20T15:52:08.233Z,27.26
2016-04-20T15:53:08.236Z,27.45
2016-04-20T15:54:08.223Z,27.07
2016-04-20T15:55:08.226Z,27.45
2016-04-20T15:56:08.228Z,27.73
2016-04-20T15:57:08.231Z,27.73
2016-04-20T15:58:08.271Z,27.64
2016-04-20T15:59:08.299Z,27.45
2016-04-20T16:00:08.344Z,27.36
2016-04-20T16:01:08.388Z,27.36
2016-04-20T16:02:08.432Z,27.45
2016-04-20T16:03:08.442Z,27.16
2016-04-20T16:04:08.477Z,27.26
2016-04-20T16:05:08.479Z,27.26
2016-04-20T16:06:50.801Z,26.97
2016-04-20T16:07:49.394Z,27.07
2016-04-20T16:08:49.418Z,27.45
2016-04-20T16:09:49.442Z,27.45
2016-04-20T16:10:49.918Z,27.45
2016-04-20T16:11:49.411Z,27.64
2016-04-20T16:12:49.667Z,27.73
2016-04-20T16:13:49.422Z,27.45
2016-04-20T16:14:49.427Z,27.07
2016-04-20T16:15:49.432Z,27.36
2016-04-20T16:16:49.420Z,27.26
2016-04-20T16:17:50.628Z,27.36
2016-04-20T16:18:49.429Z,27.26
2016-04-20T16:19:49.432Z,27.36
2016-04-20T16:20:49.420Z,27.53
2016-04-20T16:21:49.439Z,27.44
2016-04-20T16:22:49.443Z,27.44
2016-04-20T16:23:49.429Z,27.36
2016-04-20T16:24:49.448Z,27.62
2016-04-20T16:25:49.435Z,27.62
2016-04-20T16:26:49.422Z,27.45
2016-04-20T16:27:49.410Z,27.25
2016-04-20T16:28:49.428Z,27.62
2016-04-20T16:29:49.416Z,27.53
2016-04-20T16:30:49.419Z,27.45
2016-04-20T16:31:49.421Z,27.34
2016-04-20T16:32:49.408Z,27.53
2016-04-20T16:33:49.410Z,27.44
2016-04-20T16:34:49.429Z,28.11
2016-04-20T16:35:49.416Z,28.11
2016-04-20T16:36:49.418Z,28.2
2016-04-20T16:37:49.406Z,28.2
2016-04-20T16:38:49.409Z,28.3
2016-04-20T16:39:49.412Z,28.3
2016-04-20T16:40:49.414Z,28.2
2016-04-20T16:41:49.401Z,28.87
2016-04-20T16:42:49.404Z,28.49
2016-04-20T16:43:49.406Z,28.68
2016-04-20T16:44:49.409Z,28.76
2016-04-20T16:45:49.396Z,28.77
2016-04-20T16:46:49.414Z,28.77
2016-04-20T16:47:49.401Z,29.05
2016-04-20T16:48:49.389Z,28.66
2016-04-20T16:49:49.407Z,28.87
2016-04-20T16:50:49.395Z,28.76
2016-04-20T16:51:49.397Z,29.24
2016-04-20T16:52:49.384Z,29.05
2016-04-20T16:53:49.386Z,29.05
2016-04-20T16:54:49.389Z,28.86
2016-04-20T16:55:49.392Z,28.76
2016-04-20T16:56:49.378Z,29.24
2016-04-20T16:57:49.381Z,29.62
2016-04-20T16:58:49.384Z,29.91
2016-04-20T16:59:50.106Z,29.8
2016-04-20T17:00:49.389Z,29.61
2016-04-20T17:01:49.924Z,29.8
2016-04-20T17:02:49.379Z,29.8
2016-04-20T17:03:49.382Z,29.51
2016-04-20T17:04:49.369Z,29.51
2016-04-20T17:05:49.372Z,29.89
2016-04-20T17:06:50.484Z,29.97
2016-04-20T17:07:49.362Z,29.97
2016-04-20T17:08:49.365Z,29.69
2016-04-20T17:09:49.382Z,30.26
2016-04-20T17:10:49.635Z,30.45
2016-04-20T17:11:49.357Z,30.55
2016-04-20T17:12:49.360Z,30.64
2016-04-20T17:13:49.362Z,31.12
2016-04-20T17:14:49.349Z,30.93
2016-04-20T17:15:49.352Z,31.12
2016-04-20T17:16:49.340Z,30.93
2016-04-20T17:17:49.357Z,30.91
2016-04-20T17:18:49.344Z,31.29
2016-04-20T17:19:49.347Z,31.58
2016-04-20T17:20:49.334Z,31.68
2016-04-20T17:21:49.368Z,31.58
2016-04-20T17:22:49.324Z,31.68
2016-04-20T17:23:49.326Z,31.77
2016-04-20T17:24:49.329Z,32.34
2016-04-20T17:25:49.926Z,31.87
2016-04-20T17:26:50.428Z,32.14
2016-04-20T17:27:49.977Z,32.32
2016-04-20T17:28:49.308Z,32.23
2016-04-20T17:29:49.718Z,32.52
2016-04-20T17:30:49.814Z,32.71
2016-04-20T17:31:49.316Z,32.61
2016-04-20T17:32:49.305Z,32.9
2016-04-20T17:33:51.807Z,32.9
2016-04-20T17:34:51.403Z,32.9
2016-04-20T17:35:50.484Z,33.18
2016-04-20T17:36:49.190Z,33.28
2016-04-20T17:37:49.583Z,33.76
2016-04-20T17:38:49.445Z,33.93
2016-04-20T17:39:49.291Z,34.03
2016-04-20T17:40:49.529Z,34.22
2016-04-20T17:41:49.297Z,34.03
2016-04-20T17:42:49.285Z,34.5
2016-04-20T17:43:49.302Z,34.41
2016-04-20T17:44:49.274Z,34.6
2016-04-20T17:45:49.277Z,35.08
2016-04-20T17:46:49.263Z,35.27
2016-04-20T17:47:49.266Z,35.36
2016-04-20T17:48:49.268Z,35.25
2016-04-20T17:49:49.241Z,35.63
2016-04-20T17:50:49.243Z,36.1
2016-04-20T17:51:49.340Z,36.1
2016-04-20T17:52:49.248Z,36.39
2016-04-20T17:53:49.241Z,36.68
2016-04-20T17:54:49.244Z,36.58
2016-04-20T17:55:49.231Z,36.87
2016-04-20T17:56:49.234Z,37.15
2016-04-20T17:57:49.237Z,36.87
2016-04-20T17:58:49.223Z,37.13
2016-04-20T17:59:49.086Z,36.94
2016-04-20T18:00:49.228Z,37.52
2016-04-20T18:01:49.216Z,37.23
2016-04-20T18:02:49.203Z,37.61
2016-04-20T18:03:49.205Z,37.8
2016-04-20T18:04:49.209Z,37.99
2016-04-20T18:05:49.195Z,37.99
2016-04-20T18:06:49.214Z,38.37
2016-04-20T18:07:49.183Z,38.47
2016-04-20T18:08:49.202Z,38.56
2016-04-20T18:09:49.017Z,38.54
2016-04-20T18:10:49.175Z,38.92
2016-04-20T18:11:49.164Z,38.45
2016-04-20T18:12:49.166Z,39.31
2016-04-20T18:13:49.152Z,39.4
2016-04-20T18:14:49.155Z,39.97
2016-04-20T18:15:51.142Z,39.69
2016-04-20T18:16:50.598Z,40.45
2016-04-20T18:17:49.340Z,40.06
2016-04-20T18:18:50.170Z,40.45
2016-04-20T18:19:49.141Z,40.64
2016-04-20T18:20:49.129Z,40.64
2016-04-20T18:21:49.151Z,40.54
2016-04-20T18:22:49.358Z,40.71
2016-04-20T18:23:49.126Z,40.9
2016-04-20T18:25:49.099Z,41.28
2016-04-20T18:26:49.400Z,41.57
2016-04-20T18:27:49.089Z,41.85
2016-04-20T18:28:49.092Z,41.66
2016-04-20T18:29:49.080Z,42.14
2016-04-20T18:30:48.769Z,41.95
2016-04-20T18:31:49.085Z,42.61
2016-04-20T18:32:49.213Z,42.61
2016-04-20T18:33:49.090Z,42.99
2016-04-20T18:34:49.077Z,42.99
2016-04-20T18:35:49.064Z,42.99
2016-04-20T18:36:49.067Z,43.16
2016-04-20T18:37:49.054Z,43.45
2016-04-20T18:38:49.041Z,43.54
2016-04-20T18:39:49.044Z,43.73
2016-04-20T18:40:49.063Z,43.83
2016-04-20T18:41:49.018Z,44.12
2016-04-20T18:42:49.037Z,44.21
2016-04-20T18:43:51.382Z,44.31
2016-04-20T18:44:49.010Z,44.49
2016-04-20T18:45:49.012Z,44.68
2016-04-20T18:46:49.001Z,44.78
2016-04-20T18:47:49.346Z,44.87
2016-04-20T18:48:49.006Z,44.97
2016-04-20T18:49:48.992Z,45.26
2016-04-20T18:50:48.823Z,45.45
2016-04-20T18:51:48.981Z,45.64
2016-04-20T18:52:51.110Z,45.83
2016-04-20T18:53:50.316Z,45.73
2016-04-20T18:54:49.115Z,46.11
2016-04-20T18:55:50.118Z,46.11
2016-04-20T18:56:49.902Z,46.19
2016-04-20T18:57:49.202Z,46.11
2016-04-20T18:58:48.955Z,46.01
2016-04-20T18:59:48.941Z,46.19
2016-04-20T19:00:48.929Z,46.19
2016-04-20T19:01:48.931Z,46.47
2016-04-20T19:02:48.918Z,46.66
2016-04-20T19:03:48.921Z,46.75
2016-04-20T19:04:48.908Z,47.13
2016-04-20T19:05:48.895Z,46.94
2016-04-20T19:06:48.898Z,46.75
2016-04-20T19:07:48.728Z,46.85
2016-04-20T19:08:48.871Z,47.23
2016-04-20T19:09:48.890Z,47.33
2016-04-20T19:10:48.877Z,47.23
2016-04-20T19:11:48.864Z,47.52
2016-04-20T19:12:48.711Z,47.52
2016-04-20T19:13:48.854Z,47.33
2016-04-20T19:14:48.841Z,47.42
2016-04-20T19:15:48.844Z,47.33
2016-04-20T19:16:48.846Z,47.42
2016-04-20T19:17:48.817Z,47.8
2016-04-20T19:18:48.836Z,47.8
2016-04-20T19:19:48.823Z,47.89
2016-04-20T19:20:48.826Z,47.99
2016-04-20T19:21:48.813Z,47.89
2016-04-20T19:22:48.800Z,48.27
2016-04-20T19:23:48.803Z,48.56
2016-04-20T19:24:48.789Z,48.72
2016-04-20T19:25:48.792Z,48.72
2016-04-20T19:26:48.780Z,48.94
2016-04-20T19:27:48.783Z,49.2
2016-04-20T19:28:48.769Z,49.58
2016-04-20T19:29:48.756Z,49.49
2016-04-20T19:30:48.759Z,49.49
2016-04-20T19:31:48.746Z,49.49
2016-04-20T19:32:48.750Z,49.68
2016-04-20T19:33:49.455Z,49.29
2016-04-20T19:34:49.707Z,49.87
2016-04-20T19:35:48.819Z,49.68
2016-04-20T19:36:50.025Z,49.77
2016-04-20T19:37:48.699Z,49.96
2016-04-20T19:38:48.703Z,49.77
2016-04-20T19:39:48.924Z,49.96
2016-04-20T19:40:48.693Z,49.87
2016-04-20T19:41:48.680Z,49.77
2016-04-20T19:42:48.682Z,50.15
2016-04-20T19:43:49.716Z,50.43
2016-04-20T19:45:48.659Z,50.62
2016-04-20T19:46:49.568Z,50.62
2016-04-20T19:47:48.649Z,50.81
2016-04-20T19:48:48.823Z,50.91
2016-04-20T19:49:48.654Z,50.72
2016-04-20T19:50:48.626Z,51.01
2016-04-20T19:51:48.706Z,50.91
2016-04-20T19:52:48.615Z,51.01
2016-04-20T19:53:48.602Z,51.1
2016-04-20T19:54:48.605Z,51.29
2016-04-20T19:55:48.592Z,51.48
2016-04-20T19:56:48.595Z,51.48
2016-04-20T19:57:48.597Z,51.2
2016-04-20T19:58:48.584Z,51.57
2016-04-20T19:59:48.572Z,51.67
2016-04-20T20:00:48.559Z,51.67
2016-04-20T20:01:48.561Z,51.67
2016-04-20T20:02:50.595Z,51.57
2016-04-20T20:03:48.550Z,51.67
2016-04-20T20:04:48.539Z,51.76
2016-04-20T20:05:49.541Z,51.48
2016-04-20T20:06:48.528Z,51.76
2016-04-20T20:07:48.515Z,51.67
2016-04-20T20:08:48.518Z,51.76
2016-04-20T20:09:48.504Z,52.14
2016-04-20T20:10:48.507Z,52.33
2016-04-20T20:11:50.808Z,52.33
2016-04-20T20:12:49.621Z,52.22
2016-04-20T20:13:48.484Z,52.5
2016-04-20T20:14:48.705Z,52.62
2016-04-20T20:15:48.458Z,52.81
2016-04-20T20:16:48.446Z,52.81
2016-04-20T20:17:48.463Z,53.66
2016-04-20T20:18:48.795Z,53.66
2016-04-20T20:19:48.454Z,53.66
2016-04-20T20:20:48.440Z,53.38
2016-04-20T20:21:48.437Z,53.35
2016-04-20T20:22:48.443Z,53.35
2016-04-20T20:23:48.420Z,53.38
2016-04-20T20:24:48.406Z,53.26
2016-04-20T20:25:48.409Z,53.83
2016-04-20T20:26:48.396Z,53.54
2016-04-20T20:27:48.400Z,53.64
2016-04-20T20:28:48.386Z,54.02
2016-04-20T20:29:48.388Z,54.21
2016-04-20T20:30:48.361Z,54.21
2016-04-20T20:31:48.363Z,54.87
2016-04-20T20:32:48.350Z,54.97
2016-04-20T20:33:48.352Z,54.49
2016-04-20T20:34:48.340Z,54.68
2016-04-20T20:35:48.343Z,54.58
2016-04-20T20:36:48.329Z,55.06
2016-04-20T20:37:48.333Z,55.16
2016-04-20T20:38:48.335Z,54.97
2016-04-20T20:39:48.321Z,54.97
2016-04-20T20:40:48.309Z,55.25
2016-04-20T20:41:48.296Z,55.06
2016-04-20T20:42:48.298Z,55.25
2016-04-20T20:43:48.285Z,55.54
2016-04-20T20:44:48.270Z,55.63
2016-04-20T20:45:48.273Z,55.25
2016-04-20T20:46:48.244Z,55.73
2016-04-20T20:47:48.248Z,55.91
2016-04-20T20:48:48.234Z,55.91
2016-04-20T20:49:48.252Z,56.01
2016-04-20T20:50:48.224Z,56.1
2016-04-20T20:51:48.226Z,55.73
2016-04-20T20:52:48.338Z,56.68
2016-04-20T20:53:48.216Z,55.82
2016-04-20T20:54:49.659Z,56.2
2016-04-20T20:55:48.190Z,56.39
2016-04-20T20:56:48.178Z,56.49
2016-04-20T20:57:48.195Z,56.29
2016-04-20T20:58:48.636Z,56.29
2016-04-20T20:59:48.435Z,56.2
2016-04-20T21:00:48.220Z,56.58
2016-04-20T21:01:48.160Z,57.15
2016-04-20T21:02:48.320Z,56.87
2016-04-20T21:03:48.634Z,56.68
2016-04-20T21:04:48.216Z,56.68
2016-04-20T21:05:48.125Z,56.58
2016-04-20T21:06:48.128Z,56.68
2016-04-20T21:07:48.114Z,56.68
2016-04-20T21:08:48.101Z,56.58
2016-04-20T21:09:48.119Z,56.77
2016-04-20T21:10:48.091Z,56.87
2016-04-20T21:11:48.079Z,57.06
2016-04-20T21:12:48.064Z,57.24
2016-04-20T21:13:48.083Z,57.24
2016-04-20T21:14:48.070Z,57.24
2016-04-20T21:15:48.073Z,57.34
2016-04-20T21:16:48.045Z,56.87
2016-04-20T21:17:48.032Z,57.62
2016-04-20T21:18:48.035Z,57.43
2016-04-20T21:19:48.038Z,57.43
2016-04-20T21:20:48.024Z,57.43
2016-04-20T21:21:49.761Z,57.81
2016-04-20T21:23:48.860Z,57.24
2016-04-20T21:24:48.004Z,57.53
2016-04-20T21:25:48.085Z,57.72
2016-04-20T21:26:47.977Z,57.91